sensor_id;sensor_type;location;lat;lon;timestamp;P1;P2;P0
62631;PMS5003;48703;51.248;-0.546;2023-02-19T00:01:35;7.06;5.03;
62631;PMS5003;48703;51.248;-0.546;2023-02-19T00:04:35;5.99;5.57;
62631;PMS5003;48703;51.248;-0.546;2023-02-19T00:07:37;6.41;4.90;
62631;PMS5003;48703;51.248;-0.546;2023-02-19T00:10:38;6.69;5.14;
62631;PMS5003;48703;51.248;-0.546;2023-02-19T00:13:41;6.89;5.19;
62631;PMS5003;48703;51.248;-0.546;2023-02-19T00:16:42;6.21;4.99;
62631;PMS5003;48703;51.248;-0.546;2023-02-19T00:19:43;6.76;5.51;
62631;PMS5003;48703;51.248;-0.546;2023-02-19T00:22:45;4.30;3.87;
62631;PMS5003;48703;51.248;-0.546;2023-02-19T00:25:46;7.49;6.09;
62631;PMS5003;48703;51.248;-0.546;2023-02-19T00:28:48;8.66;6.31;
62631;PMS5003;48703;51.248;-0.546;2023-02-19T00:31:49;6.44;5.74;
62631;PMS5003;48703;51.248;-0.546;2023-02-19T00:34:51;6.71;5.47;
62631;PMS5003;48703;51.248;-0.546;2023-02-19T00:37:52;7.53;6.14;
62631;PMS5003;48703;51.248;-0.546;2023-02-19T00:40:54;7.77;6.31;
62631;PMS5003;48703;51.248;-0.546;2023-02-19T00:43:56;6.19;5.27;
62631;PMS5003;48703;51.248;-0.546;2023-02-19T00:46:57;6.90;6.33;
62631;PMS5003;48703;51.248;-0.546;2023-02-19T00:49:59;7.00;5.33;
62631;PMS5003;48703;51.248;-0.546;2023-02-19T00:53:00;7.26;6.66;
62631;PMS5003;48703;51.248;-0.546;2023-02-19T00:56:02;6.66;5.53;
62631;PMS5003;48703;51.248;-0.546;2023-02-19T00:59:04;7.49;6.24;
62631;PMS5003;48703;51.248;-0.546;2023-02-19T01:02:05;5.59;5.40;
62631;PMS5003;48703;51.248;-0.546;2023-02-19T01:05:07;7.25;6.43;
62631;PMS5003;48703;51.248;-0.546;2023-02-19T01:08:08;8.79;7.51;
62631;PMS5003;48703;51.248;-0.546;2023-02-19T01:11:11;7.83;6.76;
62631;PMS5003;48703;51.248;-0.546;2023-02-19T01:14:12;6.80;6.16;
62631;PMS5003;48703;51.248;-0.546;2023-02-19T01:17:14;7.14;6.30;
62631;PMS5003;48703;51.248;-0.546;2023-02-19T01:20:16;6.74;6.44;
62631;PMS5003;48703;51.248;-0.546;2023-02-19T01:23:17;6.52;6.07;
62631;PMS5003;48703;51.248;-0.546;2023-02-19T01:26:20;7.64;5.19;
62631;PMS5003;48703;51.248;-0.546;2023-02-19T01:29:20;8.74;7.33;
62631;PMS5003;48703;51.248;-0.546;2023-02-19T01:32:22;7.86;6.11;
62631;PMS5003;48703;51.248;-0.546;2023-02-19T01:35:23;9.11;7.79;
62631;PMS5003;48703;51.248;-0.546;2023-02-19T01:38:25;7.19;5.71;
62631;PMS5003;48703;51.248;-0.546;2023-02-19T01:41:27;7.50;6.11;
62631;PMS5003;48703;51.248;-0.546;2023-02-19T01:45:33;7.40;6.11;
62631;PMS5003;48703;51.248;-0.546;2023-02-19T01:47:29;8.65;6.67;
62631;PMS5003;48703;51.248;-0.546;2023-02-19T01:50:31;8.13;6.01;
62631;PMS5003;48703;51.248;-0.546;2023-02-19T01:53:35;8.71;5.81;
62631;PMS5003;48703;51.248;-0.546;2023-02-19T01:56:35;6.39;5.43;
62631;PMS5003;48703;51.248;-0.546;2023-02-19T01:59:36;7.07;5.59;
62631;PMS5003;48703;51.248;-0.546;2023-02-19T02:02:38;8.97;6.97;
62631;PMS5003;48703;51.248;-0.546;2023-02-19T02:05:43;6.74;5.81;
62631;PMS5003;48703;51.248;-0.546;2023-02-19T02:08:41;6.87;6.14;
62631;PMS5003;48703;51.248;-0.546;2023-02-19T02:11:44;7.23;5.63;
62631;PMS5003;48703;51.248;-0.546;2023-02-19T02:14:45;8.17;6.53;
62631;PMS5003;48703;51.248;-0.546;2023-02-19T02:17:48;7.29;7.00;
62631;PMS5003;48703;51.248;-0.546;2023-02-19T02:20:52;7.51;6.70;
62631;PMS5003;48703;51.248;-0.546;2023-02-19T02:23:53;6.69;6.27;
62631;PMS5003;48703;51.248;-0.546;2023-02-19T02:26:55;7.99;6.91;
62631;PMS5003;48703;51.248;-0.546;2023-02-19T02:29:57;8.13;7.20;
62631;PMS5003;48703;51.248;-0.546;2023-02-19T02:32:55;9.64;7.30;
62631;PMS5003;48703;51.248;-0.546;2023-02-19T02:35:56;7.81;6.69;
62631;PMS5003;48703;51.248;-0.546;2023-02-19T02:38:57;8.36;7.40;
62631;PMS5003;48703;51.248;-0.546;2023-02-19T02:41:58;6.61;5.50;
62631;PMS5003;48703;51.248;-0.546;2023-02-19T02:45:14;9.03;7.23;
62631;PMS5003;48703;51.248;-0.546;2023-02-19T02:48:06;7.21;6.03;
62631;PMS5003;48703;51.248;-0.546;2023-02-19T02:51:05;7.94;6.01;
62631;PMS5003;48703;51.248;-0.546;2023-02-19T02:54:06;8.04;6.66;
62631;PMS5003;48703;51.248;-0.546;2023-02-19T02:57:06;6.93;6.36;
62631;PMS5003;48703;51.248;-0.546;2023-02-19T03:00:08;8.64;6.39;
62631;PMS5003;48703;51.248;-0.546;2023-02-19T03:03:09;6.63;6.47;
62631;PMS5003;48703;51.248;-0.546;2023-02-19T03:06:11;7.77;6.23;
62631;PMS5003;48703;51.248;-0.546;2023-02-19T03:09:13;7.39;6.03;
62631;PMS5003;48703;51.248;-0.546;2023-02-19T03:12:14;9.10;7.52;
62631;PMS5003;48703;51.248;-0.546;2023-02-19T03:15:15;7.36;6.06;
62631;PMS5003;48703;51.248;-0.546;2023-02-19T03:18:17;11.25;8.46;
62631;PMS5003;48703;51.248;-0.546;2023-02-19T03:21:18;7.79;6.03;
62631;PMS5003;48703;51.248;-0.546;2023-02-19T03:24:21;6.81;5.71;
62631;PMS5003;48703;51.248;-0.546;2023-02-19T03:27:21;10.88;8.23;
62631;PMS5003;48703;51.248;-0.546;2023-02-19T03:30:24;7.24;6.49;
62631;PMS5003;48703;51.248;-0.546;2023-02-19T03:33:25;6.83;5.54;
62631;PMS5003;48703;51.248;-0.546;2023-02-19T03:36:28;7.81;6.59;
62631;PMS5003;48703;51.248;-0.546;2023-02-19T03:39:28;8.43;7.64;
62631;PMS5003;48703;51.248;-0.546;2023-02-19T03:42:32;7.70;7.01;
62631;PMS5003;48703;51.248;-0.546;2023-02-19T03:45:35;6.74;5.60;
62631;PMS5003;48703;51.248;-0.546;2023-02-19T03:48:33;6.64;4.63;
62631;PMS5003;48703;51.248;-0.546;2023-02-19T03:51:36;7.81;6.13;
62631;PMS5003;48703;51.248;-0.546;2023-02-19T03:54:37;6.44;4.93;
62631;PMS5003;48703;51.248;-0.546;2023-02-19T03:57:38;8.65;7.30;
62631;PMS5003;48703;51.248;-0.546;2023-02-19T04:00:39;7.09;5.69;
62631;PMS5003;48703;51.248;-0.546;2023-02-19T04:03:42;5.80;4.74;
62631;PMS5003;48703;51.248;-0.546;2023-02-19T04:06:43;7.24;5.90;
62631;PMS5003;48703;51.248;-0.546;2023-02-19T04:09:45;7.31;5.80;
62631;PMS5003;48703;51.248;-0.546;2023-02-19T04:12:47;7.04;5.76;
62631;PMS5003;48703;51.248;-0.546;2023-02-19T04:15:47;10.10;6.23;
62631;PMS5003;48703;51.248;-0.546;2023-02-19T04:18:50;4.81;4.64;
62631;PMS5003;48703;51.248;-0.546;2023-02-19T04:21:51;6.40;4.91;
62631;PMS5003;48703;51.248;-0.546;2023-02-19T04:24:52;6.46;5.94;
62631;PMS5003;48703;51.248;-0.546;2023-02-19T04:27:54;4.81;4.11;
62631;PMS5003;48703;51.248;-0.546;2023-02-19T04:30:56;4.91;4.64;
62631;PMS5003;48703;51.248;-0.546;2023-02-19T04:33:57;6.23;4.96;
62631;PMS5003;48703;51.248;-0.546;2023-02-19T04:36:59;6.29;5.70;
62631;PMS5003;48703;51.248;-0.546;2023-02-19T04:40:01;4.87;4.87;
62631;PMS5003;48703;51.248;-0.546;2023-02-19T04:43:03;4.34;4.01;
62631;PMS5003;48703;51.248;-0.546;2023-02-19T04:46:04;3.99;3.64;
62631;PMS5003;48703;51.248;-0.546;2023-02-19T04:49:06;4.67;3.20;
62631;PMS5003;48703;51.248;-0.546;2023-02-19T04:52:08;4.16;3.66;
62631;PMS5003;48703;51.248;-0.546;2023-02-19T04:55:09;3.61;3.61;
62631;PMS5003;48703;51.248;-0.546;2023-02-19T04:58:11;3.33;3.24;
62631;PMS5003;48703;51.248;-0.546;2023-02-19T05:01:13;4.47;4.17;
62631;PMS5003;48703;51.248;-0.546;2023-02-19T05:04:15;5.49;4.24;
62631;PMS5003;48703;51.248;-0.546;2023-02-19T05:07:17;4.14;3.67;
62631;PMS5003;48703;51.248;-0.546;2023-02-19T05:10:18;4.70;3.84;
62631;PMS5003;48703;51.248;-0.546;2023-02-19T05:13:20;4.21;4.21;
62631;PMS5003;48703;51.248;-0.546;2023-02-19T05:16:22;5.63;3.73;
62631;PMS5003;48703;51.248;-0.546;2023-02-19T05:19:23;4.33;3.69;
62631;PMS5003;48703;51.248;-0.546;2023-02-19T05:22:27;6.03;4.86;
62631;PMS5003;48703;51.248;-0.546;2023-02-19T05:25:27;4.34;3.57;
62631;PMS5003;48703;51.248;-0.546;2023-02-19T05:28:28;4.24;2.89;
62631;PMS5003;48703;51.248;-0.546;2023-02-19T05:31:30;4.43;4.16;
62631;PMS5003;48703;51.248;-0.546;2023-02-19T05:34:32;5.96;4.66;
62631;PMS5003;48703;51.248;-0.546;2023-02-19T05:37:33;4.84;3.14;
62631;PMS5003;48703;51.248;-0.546;2023-02-19T05:40:35;6.32;4.06;
62631;PMS5003;48703;51.248;-0.546;2023-02-19T05:43:36;5.29;4.26;
62631;PMS5003;48703;51.248;-0.546;2023-02-19T05:46:38;4.14;3.37;
62631;PMS5003;48703;51.248;-0.546;2023-02-19T05:49:40;4.39;4.04;
62631;PMS5003;48703;51.248;-0.546;2023-02-19T05:52:41;4.71;4.14;
62631;PMS5003;48703;51.248;-0.546;2023-02-19T05:55:43;4.43;3.93;
62631;PMS5003;48703;51.248;-0.546;2023-02-19T05:58:44;5.79;4.44;
62631;PMS5003;48703;51.248;-0.546;2023-02-19T06:01:46;6.04;4.37;
62631;PMS5003;48703;51.248;-0.546;2023-02-19T06:04:48;4.69;4.43;
62631;PMS5003;48703;51.248;-0.546;2023-02-19T06:07:49;3.94;3.94;
62631;PMS5003;48703;51.248;-0.546;2023-02-19T06:10:51;4.89;3.89;
62631;PMS5003;48703;51.248;-0.546;2023-02-19T06:13:53;5.37;4.47;
62631;PMS5003;48703;51.248;-0.546;2023-02-19T06:16:54;6.97;6.10;
62631;PMS5003;48703;51.248;-0.546;2023-02-19T06:19:56;4.34;4.00;
62631;PMS5003;48703;51.248;-0.546;2023-02-19T06:22:57;5.43;3.93;
62631;PMS5003;48703;51.248;-0.546;2023-02-19T06:26:04;5.96;3.76;
62631;PMS5003;48703;51.248;-0.546;2023-02-19T06:29:01;5.09;4.23;
62631;PMS5003;48703;51.248;-0.546;2023-02-19T06:32:04;3.84;3.50;
62631;PMS5003;48703;51.248;-0.546;2023-02-19T06:35:05;4.31;3.37;
62631;PMS5003;48703;51.248;-0.546;2023-02-19T06:38:07;4.26;3.70;
62631;PMS5003;48703;51.248;-0.546;2023-02-19T06:41:11;4.64;4.17;
62631;PMS5003;48703;51.248;-0.546;2023-02-19T06:44:10;4.99;4.51;
62631;PMS5003;48703;51.248;-0.546;2023-02-19T06:47:12;3.01;2.66;
62631;PMS5003;48703;51.248;-0.546;2023-02-19T06:50:13;5.17;4.33;
62631;PMS5003;48703;51.248;-0.546;2023-02-19T06:53:15;4.79;3.51;
62631;PMS5003;48703;51.248;-0.546;2023-02-19T06:56:20;3.64;2.81;
62631;PMS5003;48703;51.248;-0.546;2023-02-19T06:59:18;2.81;2.36;
62631;PMS5003;48703;51.248;-0.546;2023-02-19T07:02:20;4.10;3.97;
62631;PMS5003;48703;51.248;-0.546;2023-02-19T07:05:22;3.34;2.66;
62631;PMS5003;48703;51.248;-0.546;2023-02-19T07:08:23;3.46;2.89;
62631;PMS5003;48703;51.248;-0.546;2023-02-19T07:11:25;5.76;4.17;
62631;PMS5003;48703;51.248;-0.546;2023-02-19T07:14:27;4.01;3.33;
62631;PMS5003;48703;51.248;-0.546;2023-02-19T07:17:28;4.37;3.94;
62631;PMS5003;48703;51.248;-0.546;2023-02-19T07:20:30;4.00;3.39;
62631;PMS5003;48703;51.248;-0.546;2023-02-19T07:23:32;3.04;2.86;
62631;PMS5003;48703;51.248;-0.546;2023-02-19T07:26:34;3.33;3.27;
62631;PMS5003;48703;51.248;-0.546;2023-02-19T07:29:35;4.93;3.16;
62631;PMS5003;48703;51.248;-0.546;2023-02-19T07:32:39;3.37;3.20;
62631;PMS5003;48703;51.248;-0.546;2023-02-19T07:35:43;5.20;4.14;
62631;PMS5003;48703;51.248;-0.546;2023-02-19T07:38:41;3.80;2.89;
62631;PMS5003;48703;51.248;-0.546;2023-02-19T07:41:42;3.61;3.43;
62631;PMS5003;48703;51.248;-0.546;2023-02-19T07:44:44;2.46;2.36;
62631;PMS5003;48703;51.248;-0.546;2023-02-19T07:47:46;2.96;2.96;
62631;PMS5003;48703;51.248;-0.546;2023-02-19T07:50:50;4.04;3.41;
62631;PMS5003;48703;51.248;-0.546;2023-02-19T07:53:49;2.63;2.50;
62631;PMS5003;48703;51.248;-0.546;2023-02-19T07:56:51;3.89;3.01;
62631;PMS5003;48703;51.248;-0.546;2023-02-19T07:59:52;4.34;3.21;
62631;PMS5003;48703;51.248;-0.546;2023-02-19T08:02:53;3.78;3.78;
62631;PMS5003;48703;51.248;-0.546;2023-02-19T08:05:55;4.57;2.70;
62631;PMS5003;48703;51.248;-0.546;2023-02-19T08:08:57;5.36;4.33;
62631;PMS5003;48703;51.248;-0.546;2023-02-19T08:11:59;3.50;3.50;
62631;PMS5003;48703;51.248;-0.546;2023-02-19T08:15:00;3.24;2.83;
62631;PMS5003;48703;51.248;-0.546;2023-02-19T08:18:02;4.26;3.50;
62631;PMS5003;48703;51.248;-0.546;2023-02-19T08:21:04;4.57;3.01;
62631;PMS5003;48703;51.248;-0.546;2023-02-19T08:24:06;4.43;3.96;
62631;PMS5003;48703;51.248;-0.546;2023-02-19T08:27:07;5.65;4.87;
62631;PMS5003;48703;51.248;-0.546;2023-02-19T08:30:09;3.17;3.17;
62631;PMS5003;48703;51.248;-0.546;2023-02-19T08:33:10;4.58;3.52;
62631;PMS5003;48703;51.248;-0.546;2023-02-19T08:36:12;3.73;2.99;
62631;PMS5003;48703;51.248;-0.546;2023-02-19T08:39:14;5.79;4.31;
62631;PMS5003;48703;51.248;-0.546;2023-02-19T08:42:15;5.27;3.77;
62631;PMS5003;48703;51.248;-0.546;2023-02-19T08:45:17;4.29;3.30;
62631;PMS5003;48703;51.248;-0.546;2023-02-19T08:48:19;3.03;2.86;
62631;PMS5003;48703;51.248;-0.546;2023-02-19T08:51:21;4.80;4.16;
62631;PMS5003;48703;51.248;-0.546;2023-02-19T08:54:22;4.07;3.73;
62631;PMS5003;48703;51.248;-0.546;2023-02-19T08:57:24;5.14;3.64;
62631;PMS5003;48703;51.248;-0.546;2023-02-19T09:00:26;4.13;3.87;
62631;PMS5003;48703;51.248;-0.546;2023-02-19T09:03:27;3.51;3.31;
62631;PMS5003;48703;51.248;-0.546;2023-02-19T09:06:29;5.09;3.37;
62631;PMS5003;48703;51.248;-0.546;2023-02-19T09:09:31;4.16;3.44;
62631;PMS5003;48703;51.248;-0.546;2023-02-19T09:12:32;4.46;4.43;
62631;PMS5003;48703;51.248;-0.546;2023-02-19T09:15:33;4.01;3.79;
62631;PMS5003;48703;51.248;-0.546;2023-02-19T09:18:35;4.43;3.66;
62631;PMS5003;48703;51.248;-0.546;2023-02-19T09:21:37;5.03;4.26;
62631;PMS5003;48703;51.248;-0.546;2023-02-19T09:24:38;4.83;3.56;
62631;PMS5003;48703;51.248;-0.546;2023-02-19T09:27:40;4.64;3.86;
62631;PMS5003;48703;51.248;-0.546;2023-02-19T09:30:42;4.26;3.14;
62631;PMS5003;48703;51.248;-0.546;2023-02-19T09:33:44;3.91;3.56;
62631;PMS5003;48703;51.248;-0.546;2023-02-19T09:36:47;5.43;3.19;
62631;PMS5003;48703;51.248;-0.546;2023-02-19T09:39:47;4.70;3.60;
62631;PMS5003;48703;51.248;-0.546;2023-02-19T09:42:49;2.87;2.83;
62631;PMS5003;48703;51.248;-0.546;2023-02-19T09:45:51;4.40;3.77;
62631;PMS5003;48703;51.248;-0.546;2023-02-19T09:48:52;3.19;3.19;
62631;PMS5003;48703;51.248;-0.546;2023-02-19T09:51:55;4.19;3.39;
62631;PMS5003;48703;51.248;-0.546;2023-02-19T09:54:56;4.14;3.31;
62631;PMS5003;48703;51.248;-0.546;2023-02-19T09:57:58;6.70;3.97;
62631;PMS5003;48703;51.248;-0.546;2023-02-19T10:01:00;3.77;3.19;
62631;PMS5003;48703;51.248;-0.546;2023-02-19T10:04:00;4.37;2.69;
62631;PMS5003;48703;51.248;-0.546;2023-02-19T10:07:02;3.56;3.37;
62631;PMS5003;48703;51.248;-0.546;2023-02-19T10:10:17;4.30;3.01;
62631;PMS5003;48703;51.248;-0.546;2023-02-19T10:13:12;3.09;2.96;
62631;PMS5003;48703;51.248;-0.546;2023-02-19T10:16:08;4.41;3.36;
62631;PMS5003;48703;51.248;-0.546;2023-02-19T10:19:09;4.97;3.23;
62631;PMS5003;48703;51.248;-0.546;2023-02-19T10:22:10;5.34;3.84;
62631;PMS5003;48703;51.248;-0.546;2023-02-19T10:25:12;3.04;3.04;
62631;PMS5003;48703;51.248;-0.546;2023-02-19T10:28:14;5.67;4.03;
62631;PMS5003;48703;51.248;-0.546;2023-02-19T10:31:16;3.24;2.71;
62631;PMS5003;48703;51.248;-0.546;2023-02-19T10:34:17;3.71;2.73;
62631;PMS5003;48703;51.248;-0.546;2023-02-19T10:37:18;5.26;4.11;
62631;PMS5003;48703;51.248;-0.546;2023-02-19T10:40:21;3.97;3.06;
62631;PMS5003;48703;51.248;-0.546;2023-02-19T10:43:23;3.37;2.69;
62631;PMS5003;48703;51.248;-0.546;2023-02-19T10:46:25;3.96;2.99;
62631;PMS5003;48703;51.248;-0.546;2023-02-19T10:49:26;4.93;3.70;
62631;PMS5003;48703;51.248;-0.546;2023-02-19T10:52:27;3.80;3.37;
62631;PMS5003;48703;51.248;-0.546;2023-02-19T10:55:30;3.61;3.00;
62631;PMS5003;48703;51.248;-0.546;2023-02-19T10:58:30;3.83;3.53;
62631;PMS5003;48703;51.248;-0.546;2023-02-19T11:01:31;3.31;2.23;
62631;PMS5003;48703;51.248;-0.546;2023-02-19T11:04:33;4.40;3.67;
62631;PMS5003;48703;51.248;-0.546;2023-02-19T11:07:34;4.25;3.84;
62631;PMS5003;48703;51.248;-0.546;2023-02-19T11:10:37;4.16;3.24;
62631;PMS5003;48703;51.248;-0.546;2023-02-19T11:13:38;3.66;3.36;
62631;PMS5003;48703;51.248;-0.546;2023-02-19T11:16:40;5.69;4.10;
62631;PMS5003;48703;51.248;-0.546;2023-02-19T11:19:41;2.56;2.56;
62631;PMS5003;48703;51.248;-0.546;2023-02-19T11:22:43;4.73;3.36;
62631;PMS5003;48703;51.248;-0.546;2023-02-19T11:25:44;3.80;2.94;
62631;PMS5003;48703;51.248;-0.546;2023-02-19T11:28:47;2.71;2.33;
62631;PMS5003;48703;51.248;-0.546;2023-02-19T11:31:48;3.16;2.49;
62631;PMS5003;48703;51.248;-0.546;2023-02-19T11:34:49;4.87;4.61;
62631;PMS5003;48703;51.248;-0.546;2023-02-19T11:37:52;3.26;3.26;
62631;PMS5003;48703;51.248;-0.546;2023-02-19T11:40:55;3.93;3.23;
62631;PMS5003;48703;51.248;-0.546;2023-02-19T11:43:58;3.53;3.31;
62631;PMS5003;48703;51.248;-0.546;2023-02-19T11:46:58;3.94;2.81;
62631;PMS5003;48703;51.248;-0.546;2023-02-19T11:49:57;3.74;3.74;
62631;PMS5003;48703;51.248;-0.546;2023-02-19T11:53:03;3.79;3.01;
62631;PMS5003;48703;51.248;-0.546;2023-02-19T11:56:05;2.49;2.36;
62631;PMS5003;48703;51.248;-0.546;2023-02-19T11:59:02;3.67;3.46;
62631;PMS5003;48703;51.248;-0.546;2023-02-19T12:02:10;4.54;3.36;
62631;PMS5003;48703;51.248;-0.546;2023-02-19T12:05:08;3.51;3.51;
62631;PMS5003;48703;51.248;-0.546;2023-02-19T12:08:11;3.07;2.96;
62631;PMS5003;48703;51.248;-0.546;2023-02-19T12:11:10;3.96;3.75;
62631;PMS5003;48703;51.248;-0.546;2023-02-19T12:14:17;2.69;2.03;
62631;PMS5003;48703;51.248;-0.546;2023-02-19T12:17:13;0.93;0.93;
62631;PMS5003;48703;51.248;-0.546;2023-02-19T12:20:16;2.96;2.96;
62631;PMS5003;48703;51.248;-0.546;2023-02-19T12:23:21;3.10;2.16;
62631;PMS5003;48703;51.248;-0.546;2023-02-19T12:26:18;4.50;3.57;
62631;PMS5003;48703;51.248;-0.546;2023-02-19T12:29:22;3.06;2.63;
62631;PMS5003;48703;51.248;-0.546;2023-02-19T12:32:25;3.19;2.06;
62631;PMS5003;48703;51.248;-0.546;2023-02-19T12:35:55;2.30;2.04;
62631;PMS5003;48703;51.248;-0.546;2023-02-19T12:38:24;2.74;2.44;
62631;PMS5003;48703;51.248;-0.546;2023-02-19T12:41:27;2.67;1.93;
62631;PMS5003;48703;51.248;-0.546;2023-02-19T12:44:29;4.11;3.69;
62631;PMS5003;48703;51.248;-0.546;2023-02-19T12:47:30;2.84;2.24;
62631;PMS5003;48703;51.248;-0.546;2023-02-19T12:50:29;2.91;2.77;
62631;PMS5003;48703;51.248;-0.546;2023-02-19T12:53:32;4.54;2.67;
62631;PMS5003;48703;51.248;-0.546;2023-02-19T12:56:33;4.91;3.46;
62631;PMS5003;48703;51.248;-0.546;2023-02-19T12:59:35;2.63;2.54;
62631;PMS5003;48703;51.248;-0.546;2023-02-19T13:02:37;3.53;3.44;
62631;PMS5003;48703;51.248;-0.546;2023-02-19T13:05:39;3.67;3.31;
62631;PMS5003;48703;51.248;-0.546;2023-02-19T13:08:38;3.67;3.16;
62631;PMS5003;48703;51.248;-0.546;2023-02-19T13:11:40;4.76;3.69;
62631;PMS5003;48703;51.248;-0.546;2023-02-19T13:14:42;3.69;2.96;
62631;PMS5003;48703;51.248;-0.546;2023-02-19T13:17:43;2.89;2.89;
62631;PMS5003;48703;51.248;-0.546;2023-02-19T13:20:45;4.14;3.26;
62631;PMS5003;48703;51.248;-0.546;2023-02-19T13:23:46;3.46;3.46;
62631;PMS5003;48703;51.248;-0.546;2023-02-19T13:26:52;2.63;2.63;
62631;PMS5003;48703;51.248;-0.546;2023-02-19T13:29:53;4.39;4.13;
62631;PMS5003;48703;51.248;-0.546;2023-02-19T13:32:53;4.77;4.11;
62631;PMS5003;48703;51.248;-0.546;2023-02-19T13:35:57;4.60;4.34;
62631;PMS5003;48703;51.248;-0.546;2023-02-19T13:38:54;3.01;2.84;
62631;PMS5003;48703;51.248;-0.546;2023-02-19T13:41:56;5.10;3.94;
62631;PMS5003;48703;51.248;-0.546;2023-02-19T13:44:57;3.81;3.81;
62631;PMS5003;48703;51.248;-0.546;2023-02-19T13:48:00;3.66;3.57;
62631;PMS5003;48703;51.248;-0.546;2023-02-19T13:52:38;3.69;3.46;
62631;PMS5003;48703;51.248;-0.546;2023-02-19T13:56:33;3.90;3.21;
62631;PMS5003;48703;51.248;-0.546;2023-02-19T13:58:33;3.21;3.17;
62631;PMS5003;48703;51.248;-0.546;2023-02-19T14:01:06;4.28;3.39;
62631;PMS5003;48703;51.248;-0.546;2023-02-19T14:04:08;3.63;2.83;
62631;PMS5003;48703;51.248;-0.546;2023-02-19T14:07:18;2.69;2.69;
62631;PMS5003;48703;51.248;-0.546;2023-02-19T14:10:11;2.29;2.06;
62631;PMS5003;48703;51.248;-0.546;2023-02-19T14:12:18;2.36;2.36;
62631;PMS5003;48703;51.248;-0.546;2023-02-19T14:15:47;2.70;2.54;
62631;PMS5003;48703;51.248;-0.546;2023-02-19T14:18:47;2.87;2.49;
62631;PMS5003;48703;51.248;-0.546;2023-02-19T14:21:17;1.60;1.60;
62631;PMS5003;48703;51.248;-0.546;2023-02-19T14:24:17;2.11;1.47;
62631;PMS5003;48703;51.248;-0.546;2023-02-19T14:27:19;3.19;2.53;
62631;PMS5003;48703;51.248;-0.546;2023-02-19T14:30:21;3.61;2.81;
62631;PMS5003;48703;51.248;-0.546;2023-02-19T14:33:23;2.39;2.13;
62631;PMS5003;48703;51.248;-0.546;2023-02-19T14:36:41;1.83;1.83;
62631;PMS5003;48703;51.248;-0.546;2023-02-19T14:39:26;1.70;1.29;
62631;PMS5003;48703;51.248;-0.546;2023-02-19T14:42:27;3.06;1.83;
62631;PMS5003;48703;51.248;-0.546;2023-02-19T14:45:28;2.03;1.40;
62631;PMS5003;48703;51.248;-0.546;2023-02-19T14:48:31;2.73;2.73;
62631;PMS5003;48703;51.248;-0.546;2023-02-19T14:51:32;2.50;2.01;
62631;PMS5003;48703;51.248;-0.546;2023-02-19T14:54:36;2.71;2.03;
62631;PMS5003;48703;51.248;-0.546;2023-02-19T14:57:37;1.20;1.20;
62631;PMS5003;48703;51.248;-0.546;2023-02-19T15:00:37;3.13;1.73;
62631;PMS5003;48703;51.248;-0.546;2023-02-19T15:03:38;3.27;3.27;
62631;PMS5003;48703;51.248;-0.546;2023-02-19T15:06:39;1.60;1.60;
62631;PMS5003;48703;51.248;-0.546;2023-02-19T15:09:41;2.09;1.27;
62631;PMS5003;48703;51.248;-0.546;2023-02-19T15:12:43;1.23;1.23;
62631;PMS5003;48703;51.248;-0.546;2023-02-19T15:15:44;1.74;1.44;
62631;PMS5003;48703;51.248;-0.546;2023-02-19T15:18:46;1.71;1.37;
62631;PMS5003;48703;51.248;-0.546;2023-02-19T15:21:47;2.63;1.46;
62631;PMS5003;48703;51.248;-0.546;2023-02-19T15:24:49;1.83;1.56;
62631;PMS5003;48703;51.248;-0.546;2023-02-19T15:27:50;1.00;0.93;
62631;PMS5003;48703;51.248;-0.546;2023-02-19T15:31:02;1.80;1.80;
62631;PMS5003;48703;51.248;-0.546;2023-02-19T15:33:53;1.86;1.33;
62631;PMS5003;48703;51.248;-0.546;2023-02-19T15:36:56;1.77;1.64;
62631;PMS5003;48703;51.248;-0.546;2023-02-19T15:39:57;2.49;2.49;
62631;PMS5003;48703;51.248;-0.546;2023-02-19T15:42:58;3.20;1.60;
62631;PMS5003;48703;51.248;-0.546;2023-02-19T15:46:00;1.27;1.27;
62631;PMS5003;48703;51.248;-0.546;2023-02-19T15:49:02;2.21;2.21;
62631;PMS5003;48703;51.248;-0.546;2023-02-19T15:52:04;1.56;1.56;
62631;PMS5003;48703;51.248;-0.546;2023-02-19T15:55:07;1.97;1.76;
62631;PMS5003;48703;51.248;-0.546;2023-02-19T15:58:07;2.87;2.26;
62631;PMS5003;48703;51.248;-0.546;2023-02-19T16:01:11;2.26;2.26;
62631;PMS5003;48703;51.248;-0.546;2023-02-19T16:04:09;3.71;2.63;
62631;PMS5003;48703;51.248;-0.546;2023-02-19T16:07:20;2.83;2.83;
62631;PMS5003;48703;51.248;-0.546;2023-02-19T16:10:17;3.21;2.44;
62631;PMS5003;48703;51.248;-0.546;2023-02-19T16:13:21;2.87;2.07;
62631;PMS5003;48703;51.248;-0.546;2023-02-19T16:16:19;2.36;2.16;
62631;PMS5003;48703;51.248;-0.546;2023-02-19T16:19:19;2.36;2.20;
62631;PMS5003;48703;51.248;-0.546;2023-02-19T16:22:19;2.31;2.27;
62631;PMS5003;48703;51.248;-0.546;2023-02-19T16:25:25;2.46;2.46;
62631;PMS5003;48703;51.248;-0.546;2023-02-19T16:28:21;1.80;1.80;
62631;PMS5003;48703;51.248;-0.546;2023-02-19T16:31:22;1.86;1.86;
62631;PMS5003;48703;51.248;-0.546;2023-02-19T16:34:31;3.00;2.26;
62631;PMS5003;48703;51.248;-0.546;2023-02-19T16:37:33;2.64;2.64;
62631;PMS5003;48703;51.248;-0.546;2023-02-19T16:41:12;3.84;3.01;
62631;PMS5003;48703;51.248;-0.546;2023-02-19T16:43:29;3.71;3.53;
62631;PMS5003;48703;51.248;-0.546;2023-02-19T16:46:30;4.83;3.83;
62631;PMS5003;48703;51.248;-0.546;2023-02-19T16:49:32;2.93;2.93;
62631;PMS5003;48703;51.248;-0.546;2023-02-19T16:52:33;4.09;3.17;
62631;PMS5003;48703;51.248;-0.546;2023-02-19T16:55:35;6.34;4.24;
62631;PMS5003;48703;51.248;-0.546;2023-02-19T16:58:36;6.57;4.76;
62631;PMS5003;48703;51.248;-0.546;2023-02-19T17:01:38;4.39;4.00;
62631;PMS5003;48703;51.248;-0.546;2023-02-19T17:04:39;5.53;4.76;
62631;PMS5003;48703;51.248;-0.546;2023-02-19T17:07:41;6.27;5.49;
62631;PMS5003;48703;51.248;-0.546;2023-02-19T17:10:43;5.09;4.61;
62631;PMS5003;48703;51.248;-0.546;2023-02-19T17:13:45;6.84;5.80;
62631;PMS5003;48703;51.248;-0.546;2023-02-19T17:16:46;6.04;4.76;
62631;PMS5003;48703;51.248;-0.546;2023-02-19T17:19:47;4.71;4.36;
62631;PMS5003;48703;51.248;-0.546;2023-02-19T17:22:49;5.11;5.11;
62631;PMS5003;48703;51.248;-0.546;2023-02-19T17:25:51;7.87;7.30;
62631;PMS5003;48703;51.248;-0.546;2023-02-19T17:28:52;12.59;12.41;
62631;PMS5003;48703;51.248;-0.546;2023-02-19T17:31:54;9.67;8.40;
62631;PMS5003;48703;51.248;-0.546;2023-02-19T17:34:55;9.17;7.43;
62631;PMS5003;48703;51.248;-0.546;2023-02-19T17:37:57;8.27;7.57;
62631;PMS5003;48703;51.248;-0.546;2023-02-19T17:40:59;9.00;7.09;
62631;PMS5003;48703;51.248;-0.546;2023-02-19T17:44:00;10.10;9.84;
62631;PMS5003;48703;51.248;-0.546;2023-02-19T17:47:01;6.86;6.31;
62631;PMS5003;48703;51.248;-0.546;2023-02-19T17:50:03;9.37;7.39;
62631;PMS5003;48703;51.248;-0.546;2023-02-19T17:53:04;11.83;9.30;
62631;PMS5003;48703;51.248;-0.546;2023-02-19T17:56:06;9.94;8.31;
62631;PMS5003;48703;51.248;-0.546;2023-02-19T17:59:08;12.39;10.13;
62631;PMS5003;48703;51.248;-0.546;2023-02-19T18:02:09;10.86;10.61;
62631;PMS5003;48703;51.248;-0.546;2023-02-19T18:05:11;11.13;10.00;
62631;PMS5003;48703;51.248;-0.546;2023-02-19T18:08:12;12.20;10.60;
62631;PMS5003;48703;51.248;-0.546;2023-02-19T18:11:15;11.73;10.31;
62631;PMS5003;48703;51.248;-0.546;2023-02-19T18:14:17;12.01;9.39;
62631;PMS5003;48703;51.248;-0.546;2023-02-19T18:17:18;10.56;10.51;
62631;PMS5003;48703;51.248;-0.546;2023-02-19T18:20:21;9.80;9.49;
62631;PMS5003;48703;51.248;-0.546;2023-02-19T18:23:20;11.54;10.91;
62631;PMS5003;48703;51.248;-0.546;2023-02-19T18:26:22;12.03;10.73;
62631;PMS5003;48703;51.248;-0.546;2023-02-19T18:29:24;12.40;10.76;